Time;durP1;ratioP1;P1;durP2;ratioP2;P2;SDS_P1;SDS_P2;PMS_P1;PMS_P2;Temp;Humidity;BMP_temperature;BMP_pressure;BME280_temperature;BME280_humidity;BME280_pressure;Samples;Min_cycle;Max_cycle;Signal;HPM_P1;HPM_P2
2023/12/17 00:01:59;;;;;;;4.95;3.33;;;12.40;73.80;;;;;;5040967;28;20026;-92
2023/12/17 00:04:25;;;;;;;3.70;3.40;;;12.40;73.90;;;;;;5039253;28;20521;-89
2023/12/17 00:06:51;;;;;;;3.60;3.30;;;12.40;73.90;;;;;;5031519;28;20053;-90
2023/12/17 00:09:19;;;;;;;4.22;3.40;;;12.40;73.90;;;;;;5040557;28;20113;-90
2023/12/17 00:11:47;;;;;;;3.75;3.00;;;12.40;73.90;;;;;;5032762;28;20480;-91
2023/12/17 00:14:14;;;;;;;3.67;3.38;;;12.40;73.90;;;;;;5043335;28;20691;-90
2023/12/17 00:16:41;;;;;;;5.72;3.80;;;12.40;73.90;;;;;;5041736;28;20427;-91
2023/12/17 00:19:07;;;;;;;3.63;2.67;;;12.40;73.90;;;;;;5042478;28;20028;-92
2023/12/17 00:21:34;;;;;;;4.32;3.03;;;12.40;73.90;;;;;;5045462;28;20172;-91
2023/12/17 00:24:01;;;;;;;5.65;3.33;;;12.40;73.90;;;;;;5038102;28;20107;-90
2023/12/17 00:26:27;;;;;;;3.60;2.80;;;12.40;74.00;;;;;;5041911;28;20030;-93
2023/12/17 00:28:56;;;;;;;3.30;2.92;;;12.30;73.80;;;;;;5034318;28;20091;-90
2023/12/17 00:31:23;;;;;;;4.78;3.10;;;12.30;73.80;;;;;;5043964;28;20075;-90
2023/12/17 00:33:49;;;;;;;4.93;3.75;;;12.30;73.80;;;;;;5048804;28;20044;-91
2023/12/17 00:36:16;;;;;;;3.95;2.35;;;12.30;73.80;;;;;;5046755;28;20498;-92
2023/12/17 00:38:42;;;;;;;4.32;2.88;;;12.30;73.80;;;;;;5047451;28;20051;-91
2023/12/17 00:41:08;;;;;;;3.65;2.45;;;12.40;74.00;;;;;;5031177;28;20045;-90
2023/12/17 00:43:35;;;;;;;5.18;2.40;;;12.30;73.70;;;;;;5041914;28;20075;-91
2023/12/17 00:46:01;;;;;;;5.75;2.58;;;12.30;73.80;;;;;;5044393;28;20816;-93
2023/12/17 00:48:31;;;;;;;6.97;2.03;;;12.30;73.70;;;;;;5053165;28;20295;-94
2023/12/17 00:51:01;;;;;;;6.97;2.33;;;12.30;73.80;;;;;;5059935;28;20072;-95
2023/12/17 00:53:28;;;;;;;5.57;2.03;;;12.30;73.70;;;;;;5060290;28;20033;-95
2023/12/17 00:55:54;;;;;;;3.53;2.03;;;12.30;73.80;;;;;;5053310;28;20067;-94
2023/12/17 00:58:21;;;;;;;4.60;1.80;;;12.30;73.70;;;;;;5047321;28;20036;-95
2023/12/17 01:00:48;;;;;;;6.75;2.33;;;12.30;73.70;;;;;;5046951;28;20037;-91
2023/12/17 01:03:17;;;;;;;3.25;1.83;;;12.30;73.80;;;;;;5054926;28;20394;-90
2023/12/17 01:05:44;;;;;;;4.30;1.73;;;12.20;73.60;;;;;;5051237;28;20029;-92
2023/12/17 01:08:11;;;;;;;4.38;2.05;;;12.30;73.70;;;;;;5045063;28;20029;-90
2023/12/17 01:10:37;;;;;;;5.72;2.05;;;12.20;73.60;;;;;;5035678;28;20041;-95
2023/12/17 01:13:07;;;;;;;5.57;1.80;;;12.20;73.60;;;;;;5048748;28;20014;-94
2023/12/17 01:15:34;;;;;;;5.95;1.77;;;12.20;73.60;;;;;;5052977;28;20037;-95
2023/12/17 01:18:00;;;;;;;7.55;2.58;;;12.20;73.60;;;;;;5041825;28;20025;-96
2023/12/17 01:20:27;;;;;;;7.78;1.80;;;12.20;73.60;;;;;;5043327;28;20382;-94
2023/12/17 01:22:52;;;;;;;7.35;1.85;;;12.20;73.60;;;;;;5051663;28;20037;-96
2023/12/17 01:25:20;;;;;;;3.65;1.67;;;12.20;73.60;;;;;;5046146;28;20590;-95
2023/12/17 01:27:48;;;;;;;5.40;1.65;;;12.20;73.60;;;;;;5047618;28;20041;-95
2023/12/17 01:30:15;;;;;;;7.97;2.00;;;12.20;73.60;;;;;;5056586;28;20406;-96
2023/12/17 01:32:43;;;;;;;6.13;2.28;;;12.20;73.60;;;;;;5052103;28;20148;-95
2023/12/17 01:35:09;;;;;;;7.00;2.90;;;12.20;73.50;;;;;;5056020;28;20036;-96
2023/12/17 01:37:36;;;;;;;6.28;2.22;;;12.10;73.40;;;;;;5049273;28;20040;-96
2023/12/17 01:40:02;;;;;;;7.00;2.20;;;12.10;73.30;;;;;;5052297;28;20041;-95
2023/12/17 01:42:28;;;;;;;5.63;2.30;;;12.10;73.30;;;;;;5042387;28;20036;-95
2023/12/17 01:44:55;;;;;;;4.70;3.67;;;12.10;73.30;;;;;;5052934;28;20462;-95
2023/12/17 01:47:24;;;;;;;6.10;1.75;;;12.10;73.30;;;;;;5048111;28;20056;-96
2023/12/17 01:52:39;;;;;;;7.18;1.48;;;12.10;73.30;;;;;;5020718;28;20111;-76
2023/12/17 01:55:08;;;;;;;8.80;2.30;;;12.10;73.30;;;;;;5019387;28;20032;-80
2023/12/17 01:57:34;;;;;;;4.28;1.75;;;12.10;73.40;;;;;;5039411;28;20033;-84
2023/12/17 02:00:03;;;;;;;9.80;2.05;;;12.00;73.20;;;;;;5045161;28;20067;-82
2023/12/17 02:02:37;;;;;;;5.50;1.88;;;12.10;73.40;;;;;;5050807;28;20360;-76
2023/12/17 02:05:05;;;;;;;4.75;2.50;;;12.10;73.30;;;;;;5036646;28;20112;-80
2023/12/17 02:07:33;;;;;;;9.20;2.83;;;12.10;73.30;;;;;;5038961;28;20138;-78
2023/12/17 02:10:00;;;;;;;6.30;1.90;;;12.00;73.10;;;;;;5045915;28;20209;-78
2023/12/17 02:12:27;;;;;;;5.47;2.72;;;12.10;73.30;;;;;;5034341;28;20104;-77
2023/12/17 02:14:53;;;;;;;8.60;1.90;;;12.10;73.30;;;;;;5032969;28;20053;-78
2023/12/17 02:17:31;;;;;;;7.35;1.73;;;12.10;73.20;;;;;;5037644;28;20033;-76
2023/12/17 02:19:57;;;;;;;7.70;1.90;;;12.00;73.00;;;;;;5035093;28;20029;-78
2023/12/17 02:22:25;;;;;;;8.40;2.30;;;12.10;73.20;;;;;;5033638;28;20062;-76
2023/12/17 02:24:55;;;;;;;5.70;1.85;;;12.00;73.00;;;;;;5052847;28;20033;-78
2023/12/17 02:27:22;;;;;;;4.93;2.58;;;12.00;73.00;;;;;;5033591;28;20373;-77
2023/12/17 02:29:53;;;;;;;8.85;1.90;;;12.00;73.00;;;;;;5029246;28;20291;-77
2023/12/17 02:32:21;;;;;;;5.38;1.75;;;12.00;73.00;;;;;;5062589;22;20075;-73
2023/12/17 02:34:47;;;;;;;6.40;1.70;;;12.00;73.00;;;;;;5059766;28;20504;-73
2023/12/17 02:37:14;;;;;;;5.18;1.80;;;12.00;73.00;;;;;;5047925;28;20045;-72
2023/12/17 02:39:40;;;;;;;6.55;2.03;;;12.00;73.00;;;;;;5038995;28;20059;-73
2023/12/17 02:42:07;;;;;;;5.57;2.03;;;12.00;73.00;;;;;;5054782;28;20025;-72
2023/12/17 02:44:33;;;;;;;7.80;1.83;;;12.00;73.00;;;;;;5050903;28;20044;-78
2023/12/17 02:47:00;;;;;;;5.65;1.85;;;11.90;72.90;;;;;;5078597;22;20406;-88
2023/12/17 02:49:26;;;;;;;7.30;2.33;;;11.90;72.90;;;;;;5082938;28;20070;-88
2023/12/17 02:51:55;;;;;;;8.98;2.25;;;11.90;72.90;;;;;;5060459;28;20078;-88
2023/12/17 02:54:22;;;;;;;5.45;2.65;;;11.80;72.80;;;;;;5062413;28;20032;-91
2023/12/17 02:56:48;;;;;;;6.80;2.45;;;11.80;72.70;;;;;;5079935;28;20480;-88
2023/12/17 02:59:15;;;;;;;9.60;2.35;;;11.80;72.80;;;;;;5080465;28;20060;-88
2023/12/17 03:01:42;;;;;;;7.05;2.50;;;11.80;72.80;;;;;;5076843;28;20139;-88
2023/12/17 03:04:09;;;;;;;5.95;2.28;;;11.80;72.80;;;;;;5058014;28;20036;-86
2023/12/17 03:06:39;;;;;;;8.13;2.75;;;11.80;72.80;;;;;;5059520;28;20059;-86
2023/12/17 03:09:06;;;;;;;7.47;2.03;;;11.80;72.80;;;;;;5072654;28;20134;-85
2023/12/17 03:11:33;;;;;;;4.10;1.33;;;11.80;72.80;;;;;;5071502;28;20115;-84
2023/12/17 03:13:59;;;;;;;4.50;1.40;;;11.80;72.90;;;;;;5061099;28;20488;-85
2023/12/17 03:16:27;;;;;;;9.70;2.30;;;11.80;72.80;;;;;;5059941;28;20104;-85
2023/12/17 03:18:53;;;;;;;7.10;2.20;;;11.80;72.90;;;;;;5073478;28;20376;-85
2023/12/17 03:21:19;;;;;;;8.50;2.45;;;11.80;72.90;;;;;;5071755;28;20021;-85
2023/12/17 03:23:45;;;;;;;6.72;2.60;;;11.80;72.90;;;;;;5063227;28;20047;-85
2023/12/17 03:26:11;;;;;;;6.43;2.03;;;11.80;72.90;;;;;;5062328;28;20130;-87
2023/12/17 03:28:38;;;;;;;9.90;2.05;;;11.80;72.80;;;;;;5039309;28;20396;-86
2023/12/17 03:31:05;;;;;;;6.57;2.53;;;11.80;72.80;;;;;;5043618;28;20571;-83
2023/12/17 03:33:31;;;;;;;7.38;1.95;;;11.80;72.80;;;;;;5060461;28;20090;-84
2023/12/17 03:35:57;;;;;;;4.35;1.88;;;11.80;72.80;;;;;;5057136;28;20028;-85
2023/12/17 03:38:23;;;;;;;8.68;2.42;;;11.80;72.80;;;;;;5060514;28;20243;-82
2023/12/17 03:40:49;;;;;;;8.10;1.95;;;11.80;72.80;;;;;;5049673;28;20024;-83
2023/12/17 03:43:15;;;;;;;5.53;1.50;;;11.80;72.80;;;;;;5058788;28;20043;-83
2023/12/17 03:45:41;;;;;;;6.93;1.77;;;11.70;72.60;;;;;;5053696;28;20093;-83
2023/12/17 03:48:07;;;;;;;9.50;3.58;;;11.80;72.80;;;;;;5055576;28;20033;-84
2023/12/17 03:50:33;;;;;;;10.25;1.63;;;11.80;72.70;;;;;;5063450;28;20059;-84
2023/12/17 03:52:59;;;;;;;5.60;2.58;;;11.80;72.70;;;;;;5060165;28;20052;-84
2023/12/17 03:55:25;;;;;;;5.10;1.63;;;11.70;72.60;;;;;;5061817;28;20552;-83
2023/12/17 03:57:51;;;;;;;4.30;1.65;;;11.80;72.70;;;;;;5073893;28;20025;-83
2023/12/17 04:00:17;;;;;;;5.88;1.65;;;11.80;72.70;;;;;;5041375;28;20090;-87
2023/12/17 04:02:43;;;;;;;6.63;1.80;;;11.80;72.70;;;;;;5034208;28;20040;-85
2023/12/17 04:05:09;;;;;;;6.72;1.45;;;11.80;72.70;;;;;;5067834;28;20081;-85
2023/12/17 04:07:36;;;;;;;7.65;2.15;;;11.70;72.50;;;;;;5060689;28;20545;-87
2023/12/17 04:10:03;;;;;;;8.55;1.80;;;11.80;72.70;;;;;;5057544;28;20025;-84
2023/12/17 04:12:30;;;;;;;6.75;1.58;;;11.70;72.50;;;;;;5053506;28;20041;-85
2023/12/17 04:14:55;;;;;;;8.77;1.63;;;11.80;72.60;;;;;;5054415;28;20033;-85
2023/12/17 04:17:22;;;;;;;3.75;1.50;;;11.70;72.50;;;;;;5054650;28;20440;-84
2023/12/17 04:19:48;;;;;;;6.68;1.52;;;11.70;72.50;;;;;;5075905;28;20028;-85
2023/12/17 04:22:14;;;;;;;6.22;2.10;;;11.70;72.50;;;;;;5058298;28;20388;-84
2023/12/17 04:24:40;;;;;;;7.07;2.67;;;11.70;72.50;;;;;;5056178;28;20044;-84
2023/12/17 04:27:06;;;;;;;4.78;1.40;;;11.70;72.50;;;;;;5076880;28;20158;-85
2023/12/17 04:29:33;;;;;;;5.05;1.77;;;11.70;72.50;;;;;;5059626;28;20033;-85
2023/12/17 04:31:59;;;;;;;4.97;1.60;;;11.70;72.50;;;;;;5057110;28;20073;-85
2023/12/17 04:34:27;;;;;;;5.07;1.70;;;11.70;72.50;;;;;;5061191;28;20036;-85
2023/12/17 04:36:55;;;;;;;6.47;2.42;;;11.70;72.50;;;;;;5063500;28;20021;-86
2023/12/17 04:39:22;;;;;;;8.10;2.42;;;11.70;72.50;;;;;;5057481;28;20468;-87
2023/12/17 04:41:49;;;;;;;4.93;1.63;;;11.70;72.50;;;;;;5041608;28;20021;-85
2023/12/17 04:44:15;;;;;;;3.35;1.60;;;11.70;72.40;;;;;;5076409;28;20054;-88
2023/12/17 04:46:41;;;;;;;5.43;1.58;;;11.70;72.40;;;;;;5061012;28;20044;-86
2023/12/17 04:49:07;;;;;;;4.97;2.03;;;11.70;72.50;;;;;;5079732;28;20123;-87
2023/12/17 04:51:33;;;;;;;5.53;1.80;;;11.70;73.00;;;;;;5064989;28;20025;-86
2023/12/17 04:53:59;;;;;;;4.47;1.80;;;11.70;72.50;;;;;;5075854;28;20118;-86
2023/12/17 04:56:25;;;;;;;6.38;2.08;;;11.70;72.50;;;;;;5046344;28;20035;-87
2023/12/17 04:58:51;;;;;;;6.25;2.78;;;11.60;72.30;;;;;;5060751;28;20633;-86
2023/12/17 05:01:18;;;;;;;6.13;2.33;;;11.60;72.30;;;;;;5073512;28;20151;-85
2023/12/17 05:03:44;;;;;;;5.47;1.30;;;11.60;72.30;;;;;;5064020;28;20040;-86
2023/12/17 05:06:10;;;;;;;7.28;2.00;;;11.60;72.30;;;;;;5056072;28;20556;-87
2023/12/17 05:08:36;;;;;;;7.85;1.60;;;11.70;72.50;;;;;;5062630;28;20040;-87
2023/12/17 05:11:02;;;;;;;7.65;1.90;;;11.60;72.20;;;;;;5066412;28;20032;-87
2023/12/17 05:13:28;;;;;;;6.72;1.75;;;11.60;72.20;;;;;;5056842;28;20032;-86
2023/12/17 05:15:54;;;;;;;9.48;2.15;;;11.60;72.20;;;;;;5059086;28;20037;-87
2023/12/17 05:18:20;;;;;;;7.80;2.05;;;11.60;72.20;;;;;;5077881;28;20020;-86
2023/12/17 05:20:48;;;;;;;8.73;2.10;;;11.60;72.20;;;;;;5065231;28;20029;-86
2023/12/17 05:23:14;;;;;;;8.90;2.10;;;11.60;72.20;;;;;;5070047;28;20079;-85
2023/12/17 05:25:41;;;;;;;7.18;2.22;;;11.60;72.20;;;;;;5079207;28;20735;-89
2023/12/17 05:28:09;;;;;;;7.43;2.17;;;11.60;72.20;;;;;;5057466;28;20362;-89
2023/12/17 05:30:35;;;;;;;7.30;1.90;;;11.60;72.20;;;;;;5062966;28;20036;-89
2023/12/17 05:33:02;;;;;;;12.63;2.45;;;11.60;72.20;;;;;;5052795;28;20210;-87
2023/12/17 05:35:28;;;;;;;6.45;2.08;;;11.60;72.20;;;;;;5065572;28;20039;-90
2023/12/17 05:37:54;;;;;;;7.57;2.17;;;11.60;72.10;;;;;;5072764;28;20029;-87
2023/12/17 05:40:20;;;;;;;7.10;3.13;;;11.60;72.10;;;;;;5040109;28;20028;-87
2023/12/17 05:42:46;;;;;;;8.95;2.30;;;11.60;72.10;;;;;;5061137;28;20096;-86
2023/12/17 05:45:12;;;;;;;6.15;1.77;;;11.60;72.10;;;;;;5047717;28;20064;-86
2023/12/17 05:47:41;;;;;;;6.22;2.22;;;11.60;72.00;;;;;;5057723;28;20061;-85
2023/12/17 05:50:08;;;;;;;6.55;2.20;;;11.60;72.00;;;;;;5069687;28;20024;-86
2023/12/17 05:52:34;;;;;;;11.10;2.65;;;11.60;71.90;;;;;;5066432;28;20025;-86
2023/12/17 05:55:00;;;;;;;10.02;2.65;;;11.60;71.90;;;;;;5071493;28;20021;-86
2023/12/17 05:57:26;;;;;;;7.05;2.20;;;11.60;71.90;;;;;;5071974;28;20032;-86
2023/12/17 05:59:52;;;;;;;6.30;2.00;;;11.60;71.80;;;;;;5051628;28;20020;-86
2023/12/17 06:02:18;;;;;;;5.15;2.60;;;11.60;71.80;;;;;;5047582;28;20473;-85
2023/12/17 06:04:44;;;;;;;5.03;2.60;;;11.60;71.80;;;;;;5067279;28;21177;-86
2023/12/17 06:07:10;;;;;;;5.75;2.25;;;11.60;71.80;;;;;;5046508;28;20021;-85
2023/12/17 06:09:36;;;;;;;6.72;2.60;;;11.60;71.80;;;;;;5067713;28;20507;-87
2023/12/17 06:12:02;;;;;;;6.93;2.35;;;11.50;71.60;;;;;;5067136;28;20033;-85
2023/12/17 06:14:30;;;;;;;8.93;3.42;;;11.50;71.60;;;;;;5071338;28;20028;-87
2023/12/17 06:16:56;;;;;;;7.15;2.50;;;11.60;71.70;;;;;;5053440;28;20087;-88
2023/12/17 06:19:23;;;;;;;5.05;2.40;;;11.50;71.50;;;;;;5052961;28;20315;-87
2023/12/17 06:21:49;;;;;;;8.63;3.05;;;11.60;71.70;;;;;;5054502;28;20078;-87
2023/12/17 06:24:16;;;;;;;9.07;2.92;;;11.50;71.50;;;;;;5075944;28;20616;-87
2023/12/17 06:26:42;;;;;;;8.23;2.33;;;11.50;71.50;;;;;;5048081;28;20045;-87
2023/12/17 06:29:13;;;;;;;8.98;2.50;;;11.50;71.40;;;;;;5047690;28;20047;-89
2023/12/17 06:31:40;;;;;;;5.50;2.42;;;11.50;71.40;;;;;;5057228;28;20040;-86
2023/12/17 06:34:06;;;;;;;9.63;2.88;;;11.50;71.40;;;;;;5053093;28;20362;-87
2023/12/17 06:36:32;;;;;;;7.82;3.10;;;11.50;71.40;;;;;;5050764;28;20025;-85
2023/12/17 06:38:58;;;;;;;8.88;2.72;;;11.60;71.60;;;;;;5052242;28;20032;-86
2023/12/17 06:41:25;;;;;;;8.40;2.78;;;11.60;71.50;;;;;;5062282;28;20487;-87
2023/12/17 06:43:51;;;;;;;11.32;3.20;;;11.50;71.30;;;;;;5052670;28;20460;-85
2023/12/17 06:46:18;;;;;;;6.47;2.63;;;11.50;71.30;;;;;;5069612;28;20048;-88
2023/12/17 06:48:46;;;;;;;10.30;3.15;;;11.50;71.30;;;;;;5038309;28;20344;-88
2023/12/17 06:51:13;;;;;;;10.52;4.10;;;11.50;71.30;;;;;;5054842;28;20060;-90
2023/12/17 06:53:39;;;;;;;9.52;3.25;;;11.50;71.30;;;;;;5058701;28;20123;-86
2023/12/17 06:56:08;;;;;;;6.88;2.75;;;11.50;71.20;;;;;;5069785;28;20032;-86
2023/12/17 06:58:35;;;;;;;9.75;2.47;;;11.50;71.20;;;;;;5038415;28;20040;-87
2023/12/17 07:01:01;;;;;;;9.63;3.38;;;11.50;71.20;;;;;;5053968;28;20567;-87
2023/12/17 07:03:30;;;;;;;9.90;2.83;;;11.50;71.20;;;;;;5057745;28;20063;-86
2023/12/17 07:05:58;;;;;;;9.52;3.05;;;11.50;71.10;;;;;;5056199;28;20028;-87
2023/12/17 07:08:25;;;;;;;9.25;3.00;;;11.50;71.10;;;;;;5050842;28;20385;-87
2023/12/17 07:10:51;;;;;;;7.50;2.80;;;11.50;71.10;;;;;;5051461;28;20029;-86
2023/12/17 07:13:17;;;;;;;12.73;4.63;;;11.50;71.10;;;;;;5057009;28;20032;-86
2023/12/17 07:15:43;;;;;;;6.95;2.50;;;11.50;71.10;;;;;;5049512;28;20028;-85
2023/12/17 07:18:10;;;;;;;8.63;2.72;;;11.50;71.10;;;;;;5044966;28;20024;-85
2023/12/17 07:20:44;;;;;;;6.70;2.65;;;11.50;71.10;;;;;;5054716;28;20393;-84
2023/12/17 07:23:10;;;;;;;10.02;3.00;;;11.40;70.90;;;;;;5054995;28;20069;-85
2023/12/17 07:25:36;;;;;;;8.23;3.33;;;11.40;70.90;;;;;;5048176;28;20553;-85
2023/12/17 07:28:02;;;;;;;8.55;2.67;;;11.40;70.90;;;;;;5057387;28;20029;-85
2023/12/17 07:30:28;;;;;;;8.27;2.28;;;11.40;70.90;;;;;;5036519;28;20040;-86
2023/12/17 07:32:54;;;;;;;9.80;2.67;;;11.40;70.90;;;;;;5036391;28;20212;-87
2023/12/17 07:35:20;;;;;;;5.72;2.72;;;11.40;70.80;;;;;;5037960;28;20027;-88
2023/12/17 07:37:46;;;;;;;10.65;2.78;;;11.40;70.80;;;;;;5035227;28;20039;-89
2023/12/17 07:40:12;;;;;;;10.18;2.90;;;11.40;70.80;;;;;;5064980;28;20090;-85
2023/12/17 07:42:38;;;;;;;7.25;2.45;;;11.40;70.70;;;;;;5051227;28;20108;-86
2023/12/17 07:45:04;;;;;;;6.05;2.20;;;11.30;70.60;;;;;;5080928;28;20277;-86
2023/12/17 07:47:32;;;;;;;7.95;2.08;;;11.40;70.80;;;;;;5070206;28;20056;-86
2023/12/17 07:49:59;;;;;;;10.45;2.67;;;11.40;70.80;;;;;;5067257;28;20446;-86
2023/12/17 07:52:25;;;;;;;12.32;2.10;;;11.40;70.80;;;;;;5075048;28;20450;-85
2023/12/17 07:54:54;;;;;;;10.40;2.42;;;11.40;70.80;;;;;;5074711;28;20013;-85
2023/12/17 07:57:20;;;;;;;6.50;1.95;;;11.40;70.80;;;;;;5079368;28;20072;-87
2023/12/17 07:59:48;;;;;;;7.57;2.92;;;11.30;70.60;;;;;;5072701;28;20048;-86
2023/12/17 08:02:17;;;;;;;6.85;2.50;;;11.40;70.70;;;;;;5089473;28;20012;-85
2023/12/17 08:04:45;;;;;;;7.95;2.30;;;11.30;70.60;;;;;;5073338;28;20074;-87
2023/12/17 08:07:11;;;;;;;6.82;2.45;;;11.30;70.60;;;;;;5059665;28;20017;-87
2023/12/17 08:09:37;;;;;;;7.50;2.20;;;11.30;70.60;;;;;;5057647;28;20069;-88
2023/12/17 08:12:03;;;;;;;7.95;3.05;;;11.30;70.60;;;;;;5051659;28;20573;-88
2023/12/17 08:14:29;;;;;;;5.32;2.42;;;11.30;70.60;;;;;;5048851;28;20104;-88
2023/12/17 08:16:55;;;;;;;7.55;2.60;;;11.30;70.60;;;;;;5053995;28;20032;-87
2023/12/17 08:19:21;;;;;;;6.88;2.40;;;11.30;70.50;;;;;;5053076;28;20021;-87
2023/12/17 08:21:48;;;;;;;7.72;2.92;;;11.40;70.70;;;;;;5049580;28;20518;-90
2023/12/17 08:24:14;;;;;;;8.10;2.50;;;11.30;70.50;;;;;;5055170;28;20052;-91
2023/12/17 08:26:40;;;;;;;7.15;2.72;;;11.30;70.50;;;;;;5071088;28;20045;-89
2023/12/17 08:29:06;;;;;;;9.95;3.17;;;11.30;70.50;;;;;;5055113;28;20055;-89
2023/12/17 08:31:33;;;;;;;8.50;2.33;;;11.30;70.50;;;;;;5066868;28;20423;-88
2023/12/17 08:33:59;;;;;;;8.35;2.50;;;11.30;70.50;;;;;;5071936;28;20036;-89
2023/12/17 08:36:27;;;;;;;9.63;2.88;;;11.40;71.10;;;;;;5059065;28;20024;-89
2023/12/17 08:38:55;;;;;;;8.40;2.42;;;11.40;70.60;;;;;;5054440;28;20043;-89
2023/12/17 08:41:21;;;;;;;8.23;2.60;;;11.30;70.40;;;;;;5062221;28;20025;-89
2023/12/17 08:43:47;;;;;;;7.18;2.08;;;11.30;70.30;;;;;;5037801;28;20040;-90
2023/12/17 08:46:13;;;;;;;5.75;2.30;;;11.30;70.30;;;;;;5048902;28;20465;-90
2023/12/17 08:48:39;;;;;;;7.20;2.47;;;11.30;70.30;;;;;;5039670;28;20029;-89
2023/12/17 08:51:10;;;;;;;10.93;3.00;;;11.30;70.30;;;;;;5051320;28;20033;-89
2023/12/17 08:53:36;;;;;;;5.47;2.25;;;11.40;70.50;;;;;;5032454;28;20055;-89
2023/12/17 08:56:03;;;;;;;8.32;2.85;;;11.40;70.40;;;;;;5069953;28;20016;-90
2023/12/17 08:58:29;;;;;;;7.40;2.40;;;11.40;70.40;;;;;;5036985;28;20029;-88
2023/12/17 09:00:56;;;;;;;8.65;2.22;;;11.40;70.40;;;;;;5054787;28;20028;-89
2023/12/17 09:03:22;;;;;;;5.38;2.30;;;11.40;70.40;;;;;;5047089;28;20581;-88
2023/12/17 09:05:48;;;;;;;3.40;1.70;;;11.40;70.40;;;;;;5065576;28;20446;-89
2023/12/17 09:08:14;;;;;;;7.80;2.47;;;11.50;70.50;;;;;;5059894;28;20028;-88
2023/12/17 09:10:40;;;;;;;7.35;2.13;;;11.50;70.50;;;;;;5065888;28;20031;-91
2023/12/17 09:13:09;;;;;;;10.35;3.33;;;11.50;70.40;;;;;;5074319;28;20575;-84
2023/12/17 09:15:40;;;;;;;8.37;2.17;;;11.50;70.40;;;;;;5061545;28;20036;-83
2023/12/17 09:18:06;;;;;;;6.60;2.30;;;11.50;70.40;;;;;;5050967;28;20071;-81
2023/12/17 09:20:32;;;;;;;6.13;2.08;;;11.50;70.30;;;;;;5055874;28;20043;-85
2023/12/17 09:22:59;;;;;;;8.38;1.83;;;11.60;70.40;;;;;;5062918;28;20123;-83
2023/12/17 09:25:25;;;;;;;9.07;3.42;;;11.60;70.40;;;;;;5077440;28;20033;-84
2023/12/17 09:27:54;;;;;;;9.95;2.15;;;11.60;70.50;;;;;;5049582;28;20028;-82
2023/12/17 09:30:20;;;;;;;5.93;1.70;;;11.70;70.70;;;;;;5057541;28;20028;-80
2023/12/17 09:32:46;;;;;;;8.13;2.10;;;11.70;70.60;;;;;;5059250;28;20117;-81
2023/12/17 09:35:13;;;;;;;8.30;2.58;;;11.80;70.70;;;;;;5073651;28;20423;-83
2023/12/17 09:37:39;;;;;;;7.75;2.10;;;11.80;70.60;;;;;;5059811;28;20695;-82
2023/12/17 09:40:08;;;;;;;6.95;2.25;;;11.80;70.50;;;;;;5062191;28;20197;-86
2023/12/17 09:42:34;;;;;;;7.03;2.38;;;11.90;70.60;;;;;;5061869;28;20564;-83
2023/12/17 09:45:00;;;;;;;10.20;1.90;;;11.90;70.50;;;;;;5067731;28;20373;-88
2023/12/17 09:47:27;;;;;;;7.93;1.92;;;11.90;70.50;;;;;;5043574;28;20174;-90
2023/12/17 09:49:56;;;;;;;6.97;1.77;;;11.90;70.40;;;;;;5051720;28;20043;-88
2023/12/17 09:52:28;;;;;;;9.43;2.20;;;11.90;70.40;;;;;;5047847;28;20029;-87
2023/12/17 09:54:55;;;;;;;;;;;11.90;70.30;;;;;;5058003;28;20028;-88
2023/12/17 09:57:21;;;;;;;9.85;2.65;;;12.00;70.50;;;;;;5058840;28;20348;-87
2023/12/17 09:59:47;;;;;;;9.70;3.15;;;12.00;70.40;;;;;;5046852;28;20063;-87
2023/12/17 10:02:15;;;;;;;6.53;2.25;;;12.00;70.30;;;;;;5076383;28;20182;-85
2023/12/17 10:04:41;;;;;;;9.43;2.45;;;12.00;70.30;;;;;;5063054;28;20128;-85
2023/12/17 10:07:07;;;;;;;8.57;2.42;;;12.00;70.30;;;;;;5033982;28;20107;-83
2023/12/17 10:09:35;;;;;;;6.03;1.90;;;12.00;70.20;;;;;;5051543;28;20040;-84
2023/12/17 10:12:02;;;;;;;8.90;2.05;;;12.00;70.20;;;;;;5057254;28;20028;-86
2023/12/17 10:14:30;;;;;;;6.22;1.60;;;12.10;70.30;;;;;;5052828;28;20142;-84
2023/12/17 10:16:57;;;;;;;6.93;1.88;;;12.00;70.10;;;;;;5050785;28;20297;-85
2023/12/17 10:19:24;;;;;;;5.45;1.70;;;12.10;70.20;;;;;;5056871;28;20067;-87
2023/12/17 10:21:50;;;;;;;4.90;1.63;;;12.10;70.10;;;;;;5044046;28;20119;-86
2023/12/17 10:24:17;;;;;;;8.23;2.50;;;12.20;70.20;;;;;;5059032;28;20085;-86
2023/12/17 10:26:48;;;;;;;7.00;2.33;;;12.20;70.20;;;;;;5053534;28;20058;-86
2023/12/17 10:29:16;;;;;;;7.60;1.92;;;12.20;70.10;;;;;;5052797;28;20321;-87
2023/12/17 10:31:43;;;;;;;5.32;2.00;;;12.20;70.10;;;;;;5052388;28;20045;-87
2023/12/17 10:34:22;;;;;;;8.13;1.92;;;12.30;70.10;;;;;;5052255;28;20045;-87
2023/12/17 10:36:53;;;;;;;5.85;2.47;;;12.30;70.00;;;;;;5044562;28;20966;-86
2023/12/17 10:39:20;;;;;;;5.90;2.03;;;12.30;70.00;;;;;;5051224;28;20032;-87
2023/12/17 10:41:47;;;;;;;14.40;2.42;;;12.40;70.10;;;;;;5065602;28;21186;-87
2023/12/17 10:44:15;;;;;;;8.77;1.73;;;12.40;69.90;;;;;;5052847;28;20563;-87
2023/12/17 10:46:43;;;;;;;5.38;2.10;;;12.50;70.00;;;;;;5067768;28;20072;-87
2023/12/17 10:49:10;;;;;;;8.40;2.33;;;12.50;69.90;;;;;;5052558;28;20436;-85
2023/12/17 10:51:43;;;;;;;4.43;1.55;;;12.60;70.00;;;;;;5065905;28;20119;-86
2023/12/17 10:54:11;;;;;;;4.15;1.92;;;12.60;69.80;;;;;;5053373;28;20056;-87
2023/12/17 10:56:55;;;;;;;7.70;1.95;;;12.70;69.90;;;;;;5037685;28;20225;-89
2023/12/17 10:59:27;;;;;;;6.55;1.52;;;12.80;69.90;;;;;;5069992;28;20054;-87
2023/12/17 11:01:55;;;;;;;6.85;1.92;;;12.80;69.80;;;;;;5055522;28;20035;-87
2023/12/17 11:04:23;;;;;;;11.02;2.20;;;12.80;69.70;;;;;;5051002;28;20555;-83
2023/12/17 11:06:51;;;;;;;7.60;2.47;;;12.80;69.60;;;;;;5049575;28;20043;-84
2023/12/17 11:09:18;;;;;;;10.00;3.08;;;12.90;69.70;;;;;;5053825;28;20074;-86
2023/12/17 11:11:49;;;;;;;4.45;1.48;;;12.90;69.60;;;;;;5047403;28;20035;-84
2023/12/17 11:14:16;;;;;;;4.38;2.30;;;13.00;69.60;;;;;;5062986;28;20305;-85
2023/12/17 11:16:42;;;;;;;7.90;2.03;;;13.00;69.60;;;;;;5041057;28;20451;-86
2023/12/17 11:19:11;;;;;;;5.20;2.00;;;13.00;69.50;;;;;;5052456;28;20098;-84
2023/12/17 11:21:37;;;;;;;7.63;1.95;;;13.00;69.40;;;;;;5061937;28;20051;-85
2023/12/17 11:24:05;;;;;;;9.27;2.10;;;13.00;69.30;;;;;;5043447;28;20036;-85
2023/12/17 11:26:44;;;;;;;7.45;1.60;;;13.10;69.40;;;;;;5035899;28;20058;-84
2023/12/17 11:29:38;;;;;;;7.38;1.70;;;13.10;69.30;;;;;;5046477;28;20092;-85
2023/12/17 11:32:08;;;;;;;6.65;1.77;;;13.20;69.30;;;;;;5045925;28;20028;-86
2023/12/17 11:34:37;;;;;;;3.88;1.80;;;13.20;69.30;;;;;;5049701;28;20155;-87
2023/12/17 11:37:03;;;;;;;4.38;1.77;;;13.20;69.30;;;;;;5055296;28;20025;-87
2023/12/17 11:39:31;;;;;;;6.43;1.98;;;13.20;69.20;;;;;;5045481;28;20033;-90
2023/12/17 11:41:57;;;;;;;5.88;1.77;;;13.20;69.20;;;;;;5053935;28;20025;-88
2023/12/17 11:44:23;;;;;;;5.00;1.70;;;13.20;69.10;;;;;;5040624;28;20036;-88
2023/12/17 11:46:51;;;;;;;5.90;2.05;;;13.20;69.00;;;;;;5028843;28;20385;-85
2023/12/17 11:49:26;;;;;;;6.03;1.90;;;13.30;69.20;;;;;;5051840;28;20090;-86
2023/12/17 11:51:55;;;;;;;5.45;2.80;;;13.30;69.10;;;;;;5045550;28;20037;-86
2023/12/17 11:54:26;;;;;;;7.72;1.73;;;13.30;69.10;;;;;;5047398;28;20139;-86
2023/12/17 11:56:52;;;;;;;4.90;1.55;;;13.30;69.50;;;;;;5063343;28;20028;-86
2023/12/17 11:59:34;;;;;;;7.13;1.80;;;13.30;68.90;;;;;;5057987;28;20333;-86
2023/12/17 12:02:02;;;;;;;3.45;1.60;;;13.30;68.90;;;;;;5036886;28;20025;-86
2023/12/17 12:04:41;;;;;;;3.22;1.73;;;13.40;69.10;;;;;;5057058;28;20167;-84
2023/12/17 12:07:08;;;;;;;7.60;2.38;;;13.40;69.00;;;;;;5047460;28;20029;-84
2023/12/17 12:09:35;;;;;;;5.35;1.85;;;13.40;68.90;;;;;;5048636;28;20456;-85
2023/12/17 12:12:01;;;;;;;5.05;2.13;;;13.50;69.00;;;;;;5046148;28;20045;-84
2023/12/17 12:14:27;;;;;;;6.78;2.22;;;13.50;68.90;;;;;;5049185;28;20763;-86
2023/12/17 12:16:55;;;;;;;3.67;1.63;;;13.60;69.00;;;;;;5046674;28;20548;-85
2023/12/17 12:19:21;;;;;;;6.32;2.20;;;13.60;68.90;;;;;;5052291;28;20105;-85
2023/12/17 12:21:51;;;;;;;10.20;2.40;;;13.70;68.90;;;;;;5064155;28;20338;-85
2023/12/17 12:24:21;;;;;;;9.68;1.80;;;13.70;68.80;;;;;;5052074;28;20044;-84
2023/12/17 12:26:47;;;;;;;9.70;1.80;;;13.80;68.80;;;;;;5050014;28;20432;-88
2023/12/17 12:29:13;;;;;;;5.85;1.90;;;13.80;68.70;;;;;;5040858;28;20634;-86
2023/12/17 12:31:50;;;;;;;8.27;2.33;;;13.90;68.70;;;;;;5035642;28;20040;-85
2023/12/17 12:34:16;;;;;;;5.00;1.95;;;13.90;68.50;;;;;;5051674;28;20520;-84
2023/12/17 12:36:52;;;;;;;8.10;2.13;;;14.00;68.60;;;;;;5055458;28;20116;-86
2023/12/17 12:39:19;;;;;;;4.82;1.85;;;14.00;68.50;;;;;;5045259;28;20126;-84
2023/12/17 12:41:47;;;;;;;7.03;1.77;;;14.00;68.40;;;;;;5041115;28;20063;-87
2023/12/17 12:44:14;;;;;;;5.20;1.88;;;14.00;68.30;;;;;;5071999;28;20503;-87
2023/12/17 12:46:40;;;;;;;7.47;2.65;;;14.00;68.30;;;;;;5040877;28;20227;-84
2023/12/17 12:49:07;;;;;;;8.20;2.53;;;14.10;68.40;;;;;;5072940;28;20033;-83